Time;durP1;ratioP1;P1;durP2;ratioP2;P2;SDS_P1;SDS_P2;PMS_P1;PMS_P2;Temp;Humidity;BMP_temperature;BMP_pressure;BME280_temperature;BME280_humidity;BME280_pressure;Samples;Min_cycle;Max_cycle;Signal;HPM_P1;HPM_P2
2022/06/29 00:02:13;;;;;;;5.15;2.60;;;;;;;18.41;85.92;101506.03;5202655;28;20526;-70
2022/06/29 00:04:45;;;;;;;5.27;2.60;;;;;;;18.40;85.34;101505.22;5200549;28;20036;-69
2022/06/29 00:07:17;;;;;;;4.15;2.53;;;;;;;18.31;85.45;101508.06;5200475;28;20030;-70
2022/06/29 00:09:48;;;;;;;4.53;2.57;;;;;;;18.21;87.98;101508.19;5202712;28;20037;-70
2022/06/29 00:12:19;;;;;;;4.63;2.77;;;;;;;18.19;87.24;101504.91;5202925;28;20022;-69
2022/06/29 00:14:51;;;;;;;7.87;2.77;;;;;;;18.19;87.09;101499.59;5204773;28;20026;-69
2022/06/29 00:17:23;;;;;;;7.28;3.25;;;;;;;18.18;88.13;101493.47;5203617;28;20030;-69
2022/06/29 00:19:54;;;;;;;6.97;2.95;;;;;;;18.04;88.61;101491.44;5204157;28;20026;-69
2022/06/29 00:22:26;;;;;;;4.38;2.38;;;;;;;18.07;87.18;101498.22;5200059;28;20113;-69
2022/06/29 00:24:58;;;;;;;6.03;2.60;;;;;;;18.08;87.81;101484.81;5205351;28;20030;-70
2022/06/29 00:27:29;;;;;;;4.95;2.65;;;;;;;18.04;89.89;101490.63;5205733;28;20061;-70
2022/06/29 00:30:01;;;;;;;5.50;2.13;;;;;;;17.93;89.73;101483.78;5206176;28;20084;-70
2022/06/29 00:32:32;;;;;;;7.82;2.72;;;;;;;17.95;88.90;101489.75;5207443;28;20510;-70
2022/06/29 00:35:04;;;;;;;5.80;2.77;;;;;;;17.89;89.20;101487.75;5206357;28;20092;-69
2022/06/29 00:37:36;;;;;;;8.80;2.40;;;;;;;17.85;90.95;101481.13;5203338;28;20510;-69
2022/06/29 00:40:07;;;;;;;4.65;2.28;;;;;;;17.85;92.65;101487.25;5202900;28;20022;-70
2022/06/29 00:42:39;;;;;;;4.60;2.40;;;;;;;17.75;92.70;101481.25;5206978;28;20107;-68
2022/06/29 00:45:11;;;;;;;5.63;2.67;;;;;;;17.72;93.57;101481.53;5203391;28;20034;-70
2022/06/29 00:47:42;;;;;;;5.70;2.40;;;;;;;17.69;92.99;101477.41;5208180;28;20033;-69
2022/06/29 00:50:13;;;;;;;6.93;2.75;;;;;;;17.76;93.30;101472.31;5201924;28;20612;-70
2022/06/29 00:52:45;;;;;;;6.10;2.92;;;;;;;17.64;94.84;101474.41;5202980;28;20049;-69
2022/06/29 00:55:18;;;;;;;5.73;2.80;;;;;;;17.57;97.04;101472.56;5209133;28;20041;-69
2022/06/29 00:57:54;;;;;;;5.40;2.63;;;;;;;17.56;97.60;101468.25;5206873;28;20360;-70
2022/06/29 01:00:25;;;;;;;4.05;2.60;;;;;;;17.47;97.60;101462.09;5202679;28;20483;-70
2022/06/29 01:03:01;;;;;;;8.70;3.72;;;;;;;17.52;98.92;101460.63;5206626;28;20046;-69
2022/06/29 01:05:32;;;;;;;5.38;2.10;;;;;;;17.28;100.00;101460.53;5202841;28;20133;-70
2022/06/29 01:08:04;;;;;;;6.20;2.80;;;;;;;17.30;100.00;101460.38;5205296;28;20117;-69
2022/06/29 01:10:35;;;;;;;5.00;2.80;;;;;;;17.31;100.00;101457.56;5204091;28;20033;-69
2022/06/29 01:13:06;;;;;;;8.52;3.47;;;;;;;17.29;100.00;101470.13;5206270;28;20025;-69
2022/06/29 01:15:39;;;;;;;6.00;2.65;;;;;;;17.22;100.00;101458.50;5206837;28;20054;-70
2022/06/29 01:18:10;;;;;;;6.18;2.72;;;;;;;17.16;100.00;101460.00;5204077;28;20027;-70
2022/06/29 01:20:41;;;;;;;5.93;3.47;;;;;;;17.15;100.00;101458.31;5207781;28;20084;-69
2022/06/29 01:23:13;;;;;;;3.38;2.45;;;;;;;17.10;100.00;101457.13;5208049;28;20029;-70
2022/06/29 01:25:50;;;;;;;5.85;3.20;;;;;;;17.09;100.00;101464.25;5206799;28;20034;-69
2022/06/29 01:28:21;;;;;;;6.35;3.10;;;;;;;16.99;100.00;101458.22;5210238;28;20038;-69
2022/06/29 01:30:52;;;;;;;5.50;2.90;;;;;;;16.96;100.00;101458.53;5199475;28;20080;-69
2022/06/29 01:33:24;;;;;;;4.05;2.60;;;;;;;16.92;100.00;101451.91;5202471;28;20019;-69
2022/06/29 01:35:55;;;;;;;8.48;3.05;;;;;;;16.90;100.00;101444.13;5203641;28;20045;-70
2022/06/29 01:38:26;;;;;;;6.65;3.05;;;;;;;16.83;100.00;101451.03;5208179;28;20065;-69
2022/06/29 01:40:58;;;;;;;4.15;2.88;;;;;;;16.83;100.00;101451.03;5206372;28;20018;-69
2022/06/29 01:43:31;;;;;;;4.97;2.85;;;;;;;16.75;100.00;101457.09;5198915;28;20442;-70
2022/06/29 01:46:02;;;;;;;;;;;;;;;17.37;100.00;101450.81;5205991;28;20030;-67
2022/06/29 01:48:33;;;;;;;5.35;3.00;;;;;;;16.70;100.00;101450.56;5201022;28;19935;-69
2022/06/29 01:51:05;;;;;;;4.07;2.90;;;;;;;16.65;100.00;101445.75;5203465;28;20058;-69
2022/06/29 01:53:36;;;;;;;6.45;2.90;;;;;;;16.58;100.00;101443.88;5202931;28;20030;-70
2022/06/29 01:56:07;;;;;;;6.28;3.60;;;;;;;16.58;100.00;101443.88;5204642;28;20471;-69
2022/06/29 01:58:39;;;;;;;5.35;3.15;;;;;;;16.53;100.00;101444.34;5197219;28;20109;-70
2022/06/29 02:01:10;;;;;;;6.63;3.00;;;;;;;16.50;100.00;101442.00;5197117;28;20026;-70
2022/06/29 02:03:42;;;;;;;6.45;3.63;;;;;;;16.43;100.00;101435.66;5206163;28;20033;-69
2022/06/29 02:06:13;;;;;;;6.40;3.60;;;;;;;16.42;100.00;101436.66;5201639;28;20030;-69
2022/06/29 02:08:45;;;;;;;5.82;3.17;;;;;;;16.40;100.00;101434.19;5204235;28;20087;-70
2022/06/29 02:11:16;;;;;;;5.40;3.35;;;;;;;16.40;100.00;101435.97;5203105;28;20383;-69
2022/06/29 02:13:47;;;;;;;7.28;3.30;;;;;;;16.34;100.00;101433.97;5201408;28;20061;-69
2022/06/29 02:16:19;;;;;;;5.72;3.22;;;;;;;16.27;100.00;101423.16;5206379;28;20403;-69
2022/06/29 02:18:50;;;;;;;5.70;3.63;;;;;;;16.29;100.00;101435.25;5202145;28;20030;-70
2022/06/29 02:21:22;;;;;;;5.75;3.92;;;;;;;16.27;100.00;101431.91;5200992;28;20042;-69
2022/06/29 02:23:54;;;;;;;4.60;3.73;;;;;;;16.22;100.00;101439.47;5203279;28;20022;-70
2022/06/29 02:26:25;;;;;;;8.05;3.92;;;;;;;16.17;100.00;101430.34;5204486;28;20423;-69
2022/06/29 02:28:57;;;;;;;6.25;3.70;;;;;;;16.23;100.00;101427.91;5206012;28;20066;-69
2022/06/29 02:37:10;;;;;;;5.35;3.95;;;;;;;16.24;100.00;101428.75;5208505;28;20046;-69
2022/06/29 02:39:43;;;;;;;5.40;3.83;;;;;;;16.24;100.00;101421.63;5198550;28;20037;-69
2022/06/29 02:42:15;;;;;;;5.45;4.15;;;;;;;16.28;100.00;101422.16;5205424;28;20037;-69
2022/06/29 02:44:46;;;;;;;7.53;4.00;;;;;;;16.29;100.00;101419.38;5197963;28;20419;-70
2022/06/29 02:47:18;;;;;;;4.68;3.97;;;;;;;16.26;100.00;101418.84;5208440;28;20463;-70
2022/06/29 02:49:49;;;;;;;6.75;4.28;;;;;;;16.25;100.00;101418.03;5212613;28;20403;-69
2022/06/29 02:52:20;;;;;;;7.35;4.43;;;;;;;16.25;100.00;101412.75;5210210;28;20112;-67
2022/06/29 02:54:51;;;;;;;6.03;4.57;;;;;;;16.24;100.00;101411.06;5204231;28;20395;-70
2022/06/29 02:57:24;;;;;;;5.32;4.30;;;;;;;16.21;100.00;101415.81;5203721;28;20022;-68
2022/06/29 02:59:56;;;;;;;6.85;4.28;;;;;;;16.27;100.00;101410.75;5200853;28;20037;-69
2022/06/29 03:02:27;;;;;;;6.97;4.47;;;;;;;16.29;100.00;101402.69;5200601;28;20022;-68
2022/06/29 03:04:59;;;;;;;6.75;4.82;;;;;;;16.23;100.00;101404.13;5202252;28;20117;-70
2022/06/29 03:07:31;;;;;;;5.43;4.55;;;;;;;16.22;100.00;101399.00;5205208;28;20030;-69
2022/06/29 03:10:03;;;;;;;7.43;4.68;;;;;;;16.20;100.00;101409.72;5199034;28;20026;-69
2022/06/29 03:12:34;;;;;;;8.77;4.85;;;;;;;16.20;100.00;101399.13;5199412;28;20397;-69
2022/06/29 03:15:07;;;;;;;7.07;4.80;;;;;;;16.20;100.00;101398.31;5201723;28;20029;-69
2022/06/29 03:17:38;;;;;;;7.68;5.25;;;;;;;16.22;100.00;101399.81;5203598;28;20192;-69
2022/06/29 03:20:10;;;;;;;7.82;5.00;;;;;;;16.21;100.00;101390.25;5204899;28;20116;-69
2022/06/29 03:22:44;;;;;;;9.18;4.47;;;;;;;16.13;100.00;101392.78;5203598;28;20390;-69
2022/06/29 03:25:16;;;;;;;6.20;4.38;;;;;;;16.16;100.00;101389.84;5203310;28;20181;-69
2022/06/29 03:27:47;;;;;;;9.40;5.03;;;;;;;16.14;100.00;101388.34;5200522;28;20053;-69
2022/06/29 03:30:18;;;;;;;9.18;4.80;;;;;;;16.16;100.00;101389.03;5204093;28;20034;-69
2022/06/29 03:32:50;;;;;;;8.25;4.68;;;;;;;16.16;100.00;101381.09;5206066;28;20134;-70
2022/06/29 03:35:21;;;;;;;11.10;5.38;;;;;;;16.13;100.00;101382.22;5202061;28;20506;-69
2022/06/29 03:37:52;;;;;;;6.38;5.07;;;;;;;16.02;100.00;101364.81;5202343;28;20467;-69
2022/06/29 03:40:24;;;;;;;7.13;4.57;;;;;;;16.11;100.00;101373.63;5201346;28;20117;-69
2022/06/29 03:42:55;;;;;;;7.97;5.05;;;;;;;16.11;100.00;101371.00;5201536;28;20388;-70
2022/06/29 03:45:27;;;;;;;6.80;4.82;;;;;;;16.10;100.00;101371.97;5205931;28;20037;-69
2022/06/29 03:47:58;;;;;;;8.50;5.13;;;;;;;16.05;100.00;101368.94;5203432;28;20033;-69
2022/06/29 03:50:29;;;;;;;6.03;4.68;;;;;;;16.15;100.00;101367.06;5205381;28;20502;-69
2022/06/29 03:53:01;;;;;;;7.53;4.75;;;;;;;16.09;100.00;101367.66;5201973;28;20051;-69
2022/06/29 03:55:32;;;;;;;8.18;5.00;;;;;;;16.10;100.00;101368.47;5202250;28;20053;-70
2022/06/29 03:58:03;;;;;;;7.22;4.72;;;;;;;16.09;100.00;101367.66;5202191;28;20022;-69
2022/06/29 04:00:35;;;;;;;5.10;4.60;;;;;;;16.14;100.00;101362.75;5201824;28;20031;-70
2022/06/29 04:03:06;;;;;;;7.47;5.30;;;;;;;16.11;100.00;101360.41;5203314;28;20124;-69
2022/06/29 04:05:37;;;;;;;6.57;4.68;;;;;;;16.18;100.00;101363.28;5199386;28;20041;-70
2022/06/29 04:08:10;;;;;;;7.97;4.88;;;;;;;16.08;100.00;101352.78;5207720;28;20114;-69
2022/06/29 04:10:41;;;;;;;7.97;4.57;;;;;;;16.10;100.00;101363.19;5206164;28;20033;-70
2022/06/29 04:13:13;;;;;;;5.45;4.45;;;;;;;16.11;100.00;101356.94;5208723;28;20018;-70
2022/06/29 04:15:45;;;;;;;7.40;4.90;;;;;;;16.10;100.00;101360.56;5201827;28;20505;-70
2022/06/29 04:18:16;;;;;;;8.45;5.28;;;;;;;16.10;100.00;101364.06;5204593;28;20049;-69
2022/06/29 04:21:05;;;;;;;9.65;5.93;;;;;;;16.13;100.00;101371.66;5207521;28;20033;-70
2022/06/29 04:23:37;;;;;;;7.63;5.18;;;;;;;16.11;100.00;101365.69;5197071;28;20424;-70
2022/06/29 04:26:08;;;;;;;7.22;5.03;;;;;;;16.13;100.00;101355.78;5205334;28;20033;-69
2022/06/29 04:28:39;;;;;;;6.78;4.97;;;;;;;16.18;100.00;101348.25;5208663;28;20046;-69
2022/06/29 04:31:11;;;;;;;10.25;5.35;;;;;;;16.22;100.00;101351.41;5203402;28;20467;-70
2022/06/29 04:33:42;;;;;;;7.05;5.18;;;;;;;16.22;100.00;101349.59;5203794;28;20054;-69
2022/06/29 04:36:14;;;;;;;8.38;5.32;;;;;;;16.28;100.00;101359.53;5199463;28;20070;-70
2022/06/29 04:38:45;;;;;;;9.13;5.25;;;;;;;16.36;100.00;101352.66;5203366;28;20062;-70
2022/06/29 04:41:17;;;;;;;5.72;5.00;;;;;;;16.36;100.00;101353.47;5206383;28;20102;-69
2022/06/29 04:43:49;;;;;;;10.98;5.47;;;;;;;16.43;100.00;101361.63;5202800;28;20412;-70
2022/06/29 04:46:20;;;;;;;6.67;5.23;;;;;;;16.46;100.00;101350.72;5205721;28;20041;-70
2022/06/29 04:48:59;;;;;;;6.10;5.25;;;;;;;16.59;100.00;101348.47;5207588;28;20033;-69
2022/06/29 04:51:32;;;;;;;8.88;5.72;;;;;;;16.56;100.00;101353.28;5201636;28;20487;-69
2022/06/29 04:54:04;;;;;;;5.75;4.88;;;;;;;16.67;100.00;101355.66;5201661;28;20452;-68
2022/06/29 04:56:36;;;;;;;8.90;6.05;;;;;;;16.73;100.00;101353.22;5205746;28;20034;-69
2022/06/29 04:59:07;;;;;;;8.07;5.93;;;;;;;16.73;100.00;101347.94;5205610;28;20028;-69
2022/06/29 05:01:38;;;;;;;10.00;5.68;;;;;;;16.85;100.00;101352.94;5206270;28;20038;-68
2022/06/29 05:04:09;;;;;;;10.15;5.55;;;;;;;16.93;100.00;101356.47;5206113;28;20488;-70
2022/06/29 05:06:41;;;;;;;8.68;5.78;;;;;;;16.99;100.00;101349.72;5204829;28;20030;-69
2022/06/29 05:09:12;;;;;;;10.48;5.72;;;;;;;17.06;100.00;101344.59;5204939;28;20031;-70
2022/06/29 05:11:43;;;;;;;7.07;5.63;;;;;;;17.16;100.00;101346.13;5203655;28;20038;-68
2022/06/29 05:14:15;;;;;;;7.55;5.70;;;;;;;17.19;100.00;101337.03;5202389;28;20169;-68
2022/06/29 05:16:46;;;;;;;7.05;5.20;;;;;;;17.27;100.00;101339.69;5205647;28;20022;-70
2022/06/29 05:19:18;;;;;;;9.55;5.32;;;;;;;17.30;100.00;101333.25;5201174;28;20109;-69
2022/06/29 05:21:49;;;;;;;6.38;5.15;;;;;;;17.37;100.00;101332.44;5207519;28;20026;-69
2022/06/29 05:24:20;;;;;;;6.55;4.90;;;;;;;17.45;100.00;101336.91;5202317;28;20030;-69
2022/06/29 05:26:51;;;;;;;7.70;5.30;;;;;;;17.50;100.00;101337.25;5208064;28;20029;-69
2022/06/29 05:29:25;;;;;;;8.38;5.35;;;;;;;17.54;100.00;101341.25;5209242;28;20030;-70
2022/06/29 05:31:57;;;;;;;8.13;4.93;;;;;;;17.63;100.00;101334.13;5203304;28;20022;-69
2022/06/29 05:34:28;;;;;;;8.05;5.40;;;;;;;17.66;100.00;101329.34;5200940;28;20037;-70
2022/06/29 05:36:59;;;;;;;7.35;4.75;;;;;;;17.82;100.00;101333.84;5240499;23;20081;-69
2022/06/29 05:39:31;;;;;;;9.23;4.95;;;;;;;17.84;100.00;101333.66;5227626;28;20030;-70
2022/06/29 05:42:02;;;;;;;7.72;4.95;;;;;;;17.99;100.00;101339.97;5231430;28;20021;-70
2022/06/29 05:44:34;;;;;;;8.27;5.38;;;;;;;18.10;100.00;101331.66;5229678;28;20038;-69
2022/06/29 05:47:06;;;;;;;7.80;4.78;;;;;;;18.14;100.00;101334.81;5232236;28;20033;-70
2022/06/29 05:49:37;;;;;;;7.32;4.55;;;;;;;18.11;100.00;101336.00;5231294;28;20044;-69
2022/06/29 05:52:08;;;;;;;11.32;5.25;;;;;;;18.31;100.00;101327.69;5231889;28;20005;-69
2022/06/29 05:54:40;;;;;;;8.43;4.90;;;;;;;18.39;100.00;101327.66;5231356;28;20040;-70
2022/06/29 05:57:11;;;;;;;8.18;4.68;;;;;;;18.53;100.00;101326.97;5230658;28;20025;-70
2022/06/29 05:59:42;;;;;;;8.55;4.60;;;;;;;18.50;100.00;101332.59;5232753;28;20061;-70
2022/06/29 06:02:14;;;;;;;8.30;4.68;;;;;;;18.71;100.00;101324.09;5232151;28;20033;-70
2022/06/29 06:04:45;;;;;;;5.45;4.43;;;;;;;18.78;100.00;101321.59;5228792;28;20045;-67
2022/06/29 06:07:16;;;;;;;7.30;4.35;;;;;;;18.92;100.00;101336.78;5225346;28;20022;-68
2022/06/29 06:09:48;;;;;;;9.10;4.80;;;;;;;19.04;100.00;101339.91;5213680;28;20029;-67
2022/06/29 06:12:19;;;;;;;7.35;4.18;;;;;;;19.13;100.00;101333.53;5222682;28;20072;-70
2022/06/29 06:14:50;;;;;;;5.53;4.13;;;;;;;19.35;96.58;101342.53;5215025;28;20426;-71
2022/06/29 06:17:21;;;;;;;6.90;4.20;;;;;;;19.46;93.79;101334.16;5222349;28;20129;-71
2022/06/29 06:19:54;;;;;;;6.03;3.95;;;;;;;19.45;96.52;101324.53;5219980;28;20018;-69
2022/06/29 06:22:25;;;;;;;10.65;3.92;;;;;;;19.75;92.96;101330.00;5222755;28;20029;-69
2022/06/29 06:24:58;;;;;;;7.17;3.40;;;;;;;19.78;93.97;101327.81;5221998;28;20026;-69
2022/06/29 06:27:29;;;;;;;8.52;3.33;;;;;;;20.02;89.81;101328.63;5224286;28;20398;-69
2022/06/29 06:30:00;;;;;;;7.83;3.03;;;;;;;20.16;89.74;101318.00;5228099;28;20022;-70
2022/06/29 06:32:31;;;;;;;6.87;2.90;;;;;;;20.27;85.24;101329.22;5226453;28;20045;-70
2022/06/29 06:35:03;;;;;;;7.00;3.17;;;;;;;20.46;85.73;101327.84;5225468;28;20032;-69
2022/06/29 06:37:34;;;;;;;6.07;2.60;;;;;;;20.65;73.57;101330.81;5224931;28;20071;-69
2022/06/29 06:42:57;;;;;;;6.90;2.53;;;;;;;20.90;69.76;101327.84;5221252;28;20045;-69
2022/06/29 06:45:29;;;;;;;5.55;2.25;;;;;;;21.00;68.27;101314.25;5227128;28;20045;-70
2022/06/29 06:48:00;;;;;;;4.13;2.10;;;;;;;21.21;67.71;101321.44;5223620;28;20775;-70
2022/06/29 06:50:31;;;;;;;4.83;2.20;;;;;;;21.38;67.88;101333.53;5222867;28;20476;-70
2022/06/29 06:53:03;;;;;;;6.27;2.33;;;;;;;21.47;67.35;101327.06;5227062;28;20378;-70
2022/06/29 06:55:34;;;;;;;4.63;2.47;;;;;;;21.59;68.49;101335.38;5227015;28;20033;-70
2022/06/29 06:58:05;;;;;;;3.73;2.10;;;;;;;21.74;64.67;101322.78;5228035;28;20022;-70
2022/06/29 07:00:37;;;;;;;8.70;2.30;;;;;;;21.88;64.24;101326.41;5224260;28;20029;-70
2022/06/29 07:03:08;;;;;;;3.70;1.57;;;;;;;22.04;61.12;101323.44;5227298;28;20033;-71
2022/06/29 07:05:39;;;;;;;4.70;2.00;;;;;;;22.16;61.49;101333.63;5224386;28;20053;-71
2022/06/29 07:08:10;;;;;;;5.00;2.30;;;;;;;22.40;61.82;101330.53;5224949;28;20036;-71
2022/06/29 07:10:42;;;;;;;5.10;2.40;;;;;;;22.46;59.04;101326.22;5221188;28;20041;-71
2022/06/29 07:13:13;;;;;;;5.00;2.03;;;;;;;22.55;57.11;101335.75;5223889;28;20068;-71
2022/06/29 07:15:44;;;;;;;4.23;1.87;;;;;;;22.73;57.17;101325.38;5223991;28;20033;-71
2022/06/29 07:18:16;;;;;;;5.37;1.93;;;;;;;22.87;59.22;101325.41;5229769;28;20022;-71
2022/06/29 07:20:47;;;;;;;9.03;2.17;;;;;;;23.02;55.73;101324.25;5228356;28;20021;-78
2022/06/29 07:23:20;;;;;;;2.83;1.93;;;;;;;23.17;55.99;101332.13;5221028;28;20036;-70
2022/06/29 07:25:51;;;;;;;;;;;;;;;23.70;56.62;101326.88;5231549;28;20403;-71
2022/06/29 07:28:23;;;;;;;4.73;1.83;;;;;;;23.55;53.84;101321.69;5230129;28;19920;-71
2022/06/29 07:30:54;;;;;;;4.17;1.90;;;;;;;23.71;51.28;101323.19;5230049;28;20538;-70
2022/06/29 07:33:26;;;;;;;3.87;2.00;;;;;;;23.78;50.75;101326.69;5228657;28;20478;-70
2022/06/29 07:35:58;;;;;;;3.87;1.80;;;;;;;23.84;48.05;101327.72;5229021;28;20425;-70
2022/06/29 07:38:29;;;;;;;6.67;1.60;;;;;;;23.96;50.60;101319.91;5228844;28;20036;-70
2022/06/29 07:41:01;;;;;;;4.57;1.80;;;;;;;24.15;50.83;101320.91;5230334;28;20044;-70
2022/06/29 07:43:32;;;;;;;3.13;1.50;;;;;;;24.32;49.36;101322.13;5231478;28;20523;-70
2022/06/29 07:46:03;;;;;;;3.63;1.63;;;;;;;24.44;49.82;101314.31;5231226;28;20434;-70
2022/06/29 07:48:35;;;;;;;3.20;1.53;;;;;;;24.54;48.34;101313.84;5231787;28;20060;-70
2022/06/29 07:51:06;;;;;;;4.27;1.47;;;;;;;24.70;47.15;101310.69;5232717;28;20516;-71
2022/06/29 07:53:37;;;;;;;4.30;1.57;;;;;;;24.84;46.05;101311.47;5234177;28;20037;-70
2022/06/29 07:56:09;;;;;;;4.33;1.47;;;;;;;24.89;46.25;101301.75;5233168;28;20026;-70
2022/06/29 07:58:40;;;;;;;4.33;1.57;;;;;;;24.90;46.52;101302.59;5233022;28;20040;-70
2022/06/29 08:01:12;;;;;;;4.83;1.43;;;;;;;24.99;45.89;101306.66;5229294;28;20044;-70
2022/06/29 08:03:43;;;;;;;3.20;1.60;;;;;;;25.09;44.69;101306.19;5234411;28;20040;-70
2022/06/29 08:06:15;;;;;;;2.43;1.33;;;;;;;25.36;45.63;101302.34;5232528;28;20389;-71
2022/06/29 08:08:47;;;;;;;3.83;1.50;;;;;;;25.57;46.05;101300.31;5229029;28;20441;-70
2022/06/29 08:11:19;;;;;;;2.57;1.30;;;;;;;25.76;47.53;101303.88;5229314;28;20033;-70
2022/06/29 08:13:50;;;;;;;5.90;1.23;;;;;;;25.76;42.80;101306.56;5232357;28;20025;-71
2022/06/29 08:16:21;;;;;;;4.77;1.20;;;;;;;25.79;41.57;101296.25;5233245;28;20425;-70
2022/06/29 08:18:52;;;;;;;2.40;1.30;;;;;;;25.96;42.22;101301.91;5232866;28;20116;-71
2022/06/29 08:21:24;;;;;;;3.77;1.37;;;;;;;26.02;42.95;101302.84;5235953;28;20025;-71
2022/06/29 08:23:55;;;;;;;3.63;1.20;;;;;;;26.13;43.99;101299.44;5232405;28;20021;-71
2022/06/29 08:26:26;;;;;;;2.83;1.17;;;;;;;26.33;40.61;101305.44;5232834;28;20037;-69
2022/06/29 08:28:57;;;;;;;4.10;1.33;;;;;;;26.30;40.14;101299.69;5229124;28;20033;-69
2022/06/29 08:31:29;;;;;;;3.20;1.20;;;;;;;26.41;39.82;101293.59;5233565;28;20037;-69
2022/06/29 08:34:04;;;;;;;3.13;1.23;;;;;;;26.54;39.32;101289.94;5235045;28;20486;-70
2022/06/29 08:36:35;;;;;;;3.25;1.25;;;;;;;26.60;40.37;101286.38;5231445;28;20195;-70
2022/06/29 08:39:07;;;;;;;2.93;1.20;;;;;;;26.72;39.04;101295.28;5224517;28;20033;-70
2022/06/29 08:41:40;;;;;;;4.10;1.20;;;;;;;26.86;40.50;101298.66;5228970;28;20288;-70
2022/06/29 08:44:12;;;;;;;2.97;1.00;;;;;;;26.80;36.95;101294.97;5232187;28;20071;-70
2022/06/29 08:46:43;;;;;;;3.83;1.30;;;;;;;26.87;39.04;101290.34;5228654;28;21051;-70
2022/06/29 08:49:14;;;;;;;3.83;1.10;;;;;;;26.98;40.08;101298.69;5232354;28;20116;-70
2022/06/29 08:51:46;;;;;;;2.97;1.20;;;;;;;26.89;39.97;101296.28;5232674;28;20402;-70
2022/06/29 08:54:18;;;;;;;2.93;1.53;;;;;;;26.87;40.03;101289.53;5232335;28;20441;-70
2022/06/29 08:56:51;;;;;;;4.85;1.40;;;;;;;27.03;39.86;101294.25;5234758;28;20036;-70
2022/06/29 08:59:23;;;;;;;2.75;1.10;;;;;;;27.09;39.05;101292.53;5232881;28;20037;-70
2022/06/29 09:01:54;;;;;;;3.78;1.10;;;;;;;27.26;36.81;101292.72;5233371;28;20044;-70
2022/06/29 09:04:25;;;;;;;4.10;1.33;;;;;;;27.26;40.28;101292.72;5232775;28;20411;-70
2022/06/29 09:06:57;;;;;;;3.53;1.13;;;;;;;27.25;38.28;101291.91;5229962;28;20029;-70
2022/06/29 09:09:28;;;;;;;2.00;0.93;;;;;;;27.38;39.37;101285.50;5230838;28;20058;-71
2022/06/29 09:12:00;;;;;;;3.63;1.30;;;;;;;27.33;37.73;101293.44;5234166;28;20272;-71
2022/06/29 09:14:33;;;;;;;4.50;1.10;;;;;;;27.21;39.09;101290.72;5233558;28;20131;-71
2022/06/29 09:17:05;;;;;;;3.10;1.30;;;;;;;27.14;38.93;101292.69;5236617;28;20113;-71
2022/06/29 09:19:36;;;;;;;3.90;1.17;;;;;;;27.39;37.62;101290.66;5231575;28;20108;-71
2022/06/29 09:22:08;;;;;;;4.50;1.13;;;;;;;27.57;37.22;101284.34;5230329;28;20033;-71
2022/06/29 09:24:39;;;;;;;3.60;0.90;;;;;;;27.86;35.17;101285.34;5232121;28;20048;-70
2022/06/29 09:27:12;;;;;;;2.67;1.38;;;;;;;27.89;34.79;101282.19;5228177;28;20379;-70
2022/06/29 09:29:44;;;;;;;2.05;1.10;;;;;;;28.19;36.04;101294.72;5229197;28;20030;-70
2022/06/29 09:32:17;;;;;;;3.05;1.23;;;;;;;28.49;34.45;101283.78;5231060;28;20021;-69
2022/06/29 09:34:52;;;;;;;5.60;1.17;;;;;;;28.45;33.45;101282.63;5232105;28;20124;-69
2022/06/29 09:37:24;;;;;;;2.05;1.05;;;;;;;28.34;33.35;101278.06;5234797;28;20049;-69
2022/06/29 09:39:58;;;;;;;;;;;;;;;29.08;34.43;101283.56;5232399;28;20482;-69
2022/06/29 09:42:29;;;;;;;3.13;1.00;;;;;;;28.54;33.24;101266.88;5227854;28;19922;-69
2022/06/29 09:45:00;;;;;;;2.63;1.27;;;;;;;28.84;33.90;101282.84;5224976;28;20041;-69
2022/06/29 09:47:33;;;;;;;3.13;0.90;;;;;;;28.85;32.46;101284.47;5223560;28;20127;-69
2022/06/29 09:50:04;;;;;;;;;;;;;;;29.47;33.50;101283.69;5227060;28;20040;-69
2022/06/29 09:52:38;;;;;;;2.30;0.97;;;;;;;29.05;32.85;101276.78;5226364;28;19914;-69
2022/06/29 09:55:11;;;;;;;2.20;0.80;;;;;;;29.04;31.92;101277.03;5227058;28;20060;-69
2022/06/29 09:57:45;;;;;;;2.20;1.20;;;;;;;29.17;32.64;101281.28;5227458;28;20083;-69
2022/06/29 10:03:08;;;;;;;1.60;0.90;;;;;;;29.40;32.10;101278.47;5223496;28;20406;-69
2022/06/29 10:05:54;;;;;;;4.43;1.10;;;;;;;29.38;31.04;101271.66;5226317;28;20120;-69
2022/06/29 10:08:26;;;;;;;2.05;0.90;;;;;;;29.68;31.29;101280.28;5225863;28;20135;-69
2022/06/29 10:13:39;;;;;;;;;;;;;;;30.38;32.22;101273.41;5228137;28;20038;-69
2022/06/29 10:14:01;;;;;;;3.47;1.05;;;;;;;30.02;30.90;101285.63;5225011;28;20540;-69
2022/06/29 10:16:42;;;;;;;2.00;1.00;;;;;;;29.71;30.95;101282.50;5226193;28;20230;-69
2022/06/29 10:19:55;;;;;;;1.88;1.00;;;;;;;29.96;32.31;101271.22;5228062;28;20065;-69
2022/06/29 10:22:30;;;;;;;3.38;1.10;;;;;;;29.70;31.31;101269.22;5220301;28;20108;-69
2022/06/29 10:25:09;;;;;;;1.92;1.10;;;;;;;29.89;32.26;101277.88;5223091;28;20034;-69
2022/06/29 10:28:16;;;;;;;3.03;1.13;;;;;;;30.18;33.14;101260.47;5224272;28;20029;-69
2022/06/29 10:30:47;;;;;;;3.20;1.00;;;;;;;29.76;32.78;101266.34;5221707;28;20029;-69
2022/06/29 10:33:35;;;;;;;3.20;1.00;;;;;;;29.95;33.04;101261.50;5225143;28;20030;-69
2022/06/29 10:36:08;;;;;;;3.47;1.00;;;;;;;29.50;31.54;101256.19;5224138;28;20107;-70
2022/06/29 10:38:49;;;;;;;3.65;1.00;;;;;;;29.98;35.19;101255.59;5228525;28;20488;-69
2022/06/29 10:44:11;;;;;;;2.20;1.13;;;;;;;29.94;32.81;101249.06;5218693;28;20022;-69
2022/06/29 10:46:56;;;;;;;4.57;1.10;;;;;;;30.20;32.22;101249.44;5222603;28;20034;-69
2022/06/29 10:49:27;;;;;;;2.75;0.88;;;;;;;29.71;30.15;101241.16;5220934;28;20033;-69
2022/06/29 10:51:59;;;;;;;2.13;0.90;;;;;;;29.61;30.55;101238.31;5226985;28;20036;-69
2022/06/29 10:54:31;;;;;;;4.68;1.20;;;;;;;29.50;31.24;101231.91;5230134;28;20108;-69
2022/06/29 10:57:02;;;;;;;2.17;0.90;;;;;;;29.87;32.49;101232.22;5227943;28;20463;-69
2022/06/29 10:59:36;;;;;;;1.80;0.95;;;;;;;30.28;31.52;101236.28;5229859;28;20040;-69
2022/06/29 11:02:13;;;;;;;2.80;1.10;;;;;;;30.17;31.27;101236.41;5225545;28;20021;-69
2022/06/29 11:04:44;;;;;;;1.80;0.93;;;;;;;30.26;32.37;101235.69;5226972;28;20454;-69
2022/06/29 11:12:57;;;;;;;1.80;0.93;;;;;;;29.55;32.34;101237.41;5230534;28;20038;-69
2022/06/29 11:15:39;;;;;;;3.50;1.33;;;;;;;29.86;31.49;101227.88;5231039;28;20036;-70
2022/06/29 11:18:16;;;;;;;3.78;1.10;;;;;;;30.09;33.40;101242.22;5226509;28;20486;-70
2022/06/29 11:20:49;;;;;;;2.63;1.30;;;;;;;29.97;32.39;101232.34;5227599;28;20055;-70
2022/06/29 11:23:27;;;;;;;1.90;1.10;;;;;;;29.94;33.46;101218.53;5227244;28;20109;-70
2022/06/29 11:26:00;;;;;;;3.55;1.23;;;;;;;29.98;32.88;101227.75;5220177;28;20837;-70
2022/06/29 11:28:35;;;;;;;2.78;1.10;;;;;;;29.84;32.72;101226.47;5232747;28;20108;-70
2022/06/29 11:31:12;;;;;;;3.67;1.10;;;;;;;30.04;32.70;101222.19;5232419;28;20500;-68
2022/06/29 11:33:46;;;;;;;3.22;1.20;;;;;;;30.30;32.20;101217.09;5232277;28;20034;-67
2022/06/29 11:36:24;;;;;;;3.28;1.52;;;;;;;30.59;32.42;101217.69;5242330;23;20756;-72
2022/06/29 11:39:03;;;;;;;3.90;1.20;;;;;;;30.25;31.70;101211.66;5221951;28;20041;-71
2022/06/29 11:44:27;;;;;;;2.38;1.35;;;;;;;30.88;30.77;101214.78;5225411;28;20049;-71
2022/06/29 11:46:58;;;;;;;3.67;1.10;;;;;;;30.65;30.19;101205.03;5226480;28;20341;-71
2022/06/29 11:49:39;;;;;;;4.17;1.17;;;;;;;30.73;31.71;101205.41;5221091;28;20026;-71
2022/06/29 11:52:13;;;;;;;5.00;1.38;;;;;;;30.28;32.29;101193.03;5220295;28;20030;-71
2022/06/29 11:54:49;;;;;;;2.85;1.25;;;;;;;30.47;32.19;101206.22;5223119;28;20033;-71
2022/06/29 11:57:21;;;;;;;4.85;1.20;;;;;;;30.16;32.87;101196.94;5218184;28;20124;-71
2022/06/29 12:00:04;;;;;;;2.45;1.35;;;;;;;30.13;31.58;101195.53;5221834;28;20041;-72
2022/06/29 12:02:35;;;;;;;2.80;0.98;;;;;;;29.95;31.88;101199.34;5221018;28;20029;-72
2022/06/29 12:05:07;;;;;;;1.85;1.10;;;;;;;29.99;31.28;101194.28;5220975;28;20505;-72
2022/06/29 12:07:38;;;;;;;2.60;1.20;;;;;;;29.94;31.45;101194.22;5224382;28;20054;-72
2022/06/29 12:10:09;;;;;;;2.83;1.30;;;;;;;30.50;32.79;101184.09;5222434;28;20034;-72